Latest Weather Observations for Brisbane Airport

IDQ60801

Issued at 2:35 pm EST Thursday 2 October 2014 (issued every 30 minutes, with the page automatically refreshed every 10 minutes)

About weather observations | Map of weather stations | Latest weather observations for QLD | Other Formats
Station Details ID: 040842 Name: BRISBANE AERO Lat: -27.39 Lon: 153.13 Height: 4.51 m
Data from the previous 72 hours. | See also: Recent months at Brisbane Airport
Date/Time
EST
Temp
°C
App
Temp
°C
Dew
Point
Rel
Hum
%
Delta-T
°C
Wind Press
QNH
hPa
Press
MSL
hPa
Rain
since 9 am
mm
Dir
 
Spd
km/h
Gust
km/h
Spd
kts
Gust
kts
02/02:30pm 21.8 18.2 10.6 49 6.1 NE 20 30 11 16 1019.8 - 0.0
02/02:00pm 21.6 19.3 10.6 49 6.0 E 13 19 7 10 1020.1 - 0.0
02/01:30pm 21.4 18.8 10.6 50 5.9 ENE 15 22 8 12 1020.4 - 0.0
02/01:00pm 22.4 19.4 10.5 47 6.5 E 17 26 9 14 1020.6 - 0.0
02/12:30pm 22.2 19.0 10.0 46 6.6 ESE 17 28 9 15 1020.9 - 0.0
02/12:00pm 23.0 20.2 11.3 47 6.5 E 17 26 9 14 1021.2 1021.2 0.0
02/11:30am 22.1 19.3 11.3 50 6.0 E 17 26 9 14 1021.5 - 0.0
02/11:00am 21.7 19.0 10.3 48 6.2 ESE 15 22 8 12 1021.7 - 0.0
02/10:30am 21.1 18.0 10.4 50 5.8 E 17 26 9 14 1022.1 - 0.0
02/10:00am 21.1 18.0 10.2 49 5.9 E 17 30 9 16 1022.2 - 0.0
02/09:30am 20.9 17.8 10.4 51 5.7 ESE 17 24 9 13 1022.3 - 0.0
02/09:00am 20.5 17.3 10.1 51 5.6 ESE 17 28 9 15 1022.3 1022.3 0.0
02/08:30am 20.1 17.0 10.2 53 5.3 ESE 17 28 9 15 1022.2 - 0.0
02/08:00am 19.7 16.6 10.2 54 5.1 E 17 26 9 14 1022.1 - 0.0
02/07:30am 19.7 16.1 9.7 52 5.3 SE 19 30 10 16 1022.0 - 0.0
02/07:00am 19.2 15.5 10.0 55 4.9 ESE 20 33 11 18 1021.7 - 0.0
02/06:30am 18.9 15.3 9.8 55 4.8 ESE 19 32 10 17 1021.4 - 0.0
02/06:00am 18.8 15.5 9.7 55 4.8 SE 17 33 9 18 1020.9 1020.9 0.0
02/05:30am 18.8 15.2 9.9 56 4.7 SE 19 30 10 16 1020.5 - 0.0
02/05:00am 18.7 15.5 9.8 56 4.7 SE 17 28 9 15 1020.2 - 0.0
02/04:30am 18.8 14.9 9.5 54 4.9 SE 20 33 11 18 1019.8 - 0.0
02/04:00am 18.8 15.1 10.2 57 4.6 SE 20 33 11 18 1019.5 - 0.0
02/03:30am 18.9 15.2 9.4 54 5.0 SE 19 32 10 17 1019.4 - 0.0
02/03:00am 19.0 15.7 9.7 54 4.9 SE 17 39 9 21 1019.3 1019.3 0.0
02/02:30am 19.0 15.4 10.0 56 4.8 SE 19 35 10 19 1019.4 - 0.0
02/02:00am 18.9 15.4 10.3 57 4.6 SE 19 32 10 17 1019.5 - 0.0
02/01:30am 19.1 16.0 10.3 56 4.7 SSE 17 28 9 15 1019.6 - 0.0
02/01:00am 19.4 15.9 10.3 55 4.9 SSE 19 32 10 17 1019.7 - 0.0
02/12:30am 19.5 15.5 10.6 56 4.8 SSE 22 37 12 20 1019.7 - 0.0
02/12:00am 19.6 16.2 11.4 59 4.5 SE 20 33 11 18 1019.8 1019.8 0.0
 
Date/Time
EST
Temp
°C
App
Temp
°C
Dew
Point
Rel
Hum
%
Delta-T
°C
Wind Press
QNH
hPa
Press
MSL
hPa
Rain
since 9 am
mm
Dir
 
Spd
km/h
Gust
km/h
Spd
kts
Gust
kts
01/11:30pm 19.6 15.5 11.6 60 4.4 SE 24 44 13 24 1019.7 - 0.0
01/11:00pm 19.5 16.6 12.3 63 4.0 SSE 19 39 10 21 1019.6 - 0.0
01/10:30pm 19.5 16.1 12.5 64 3.9 SSE 22 33 12 18 1019.3 - 0.0
01/10:00pm 19.8 16.2 12.9 64 3.9 SSE 24 43 13 23 1018.8 - 0.0
01/09:30pm 20.3 16.3 13.1 63 4.1 SSE 26 37 14 20 1018.4 - 0.0
01/09:00pm 20.7 17.4 14.9 69 3.4 SE 26 46 14 25 1017.8 1017.8 0.0
01/08:30pm 20.7 16.8 15.5 72 3.1 SE 30 48 16 26 1017.2 - 0.0
01/08:07pm 21.0 17.5 15.4 70 3.3 SE 28 46 15 25 1016.8 - 0.0
01/08:00pm 21.0 18.6 15.3 70 3.4 SE 22 39 12 21 1016.5 - 0.0
01/07:30pm 21.1 18.3 16.3 74 2.9 SE 26 44 14 24 1016.1 - 0.0
01/07:00pm 22.0 20.3 17.1 74 3.0 ESE 22 35 12 19 1015.4 - 0.0
01/06:30pm 22.4 21.6 18.4 78 2.5 SSE 20 26 11 14 1014.3 - 0.0
01/06:00pm 21.6 19.9 18.9 84 1.7 N 26 35 14 19 1012.5 1012.5 0.0
01/05:30pm 22.0 19.5 18.8 82 2.0 N 30 37 16 20 1012.1 - 0.0
01/05:00pm 22.1 19.2 18.8 81 2.1 N 32 41 17 22 1012.1 - 0.0
01/04:30pm 22.9 19.8 18.4 76 2.8 N 32 39 17 21 1012.0 - 0.0
01/04:00pm 23.4 20.6 18.3 73 3.2 N 30 39 16 21 1012.0 - 0.0
01/03:30pm 24.0 21.0 17.8 68 3.9 N 30 37 16 20 1011.9 - 0.0
01/03:00pm 23.9 20.5 17.6 68 3.9 NNE 32 39 17 21 1011.8 1011.8 0.0
01/02:30pm 25.1 21.4 17.4 62 4.8 NNE 33 43 18 23 1012.1 - 0.0
01/02:00pm 24.5 20.4 17.4 64 4.4 N 35 46 19 25 1012.2 - 0.0
01/01:30pm 25.2 21.3 17.0 60 5.1 N 33 44 18 24 1012.7 - 0.0
01/01:00pm 26.1 22.1 16.7 56 5.8 NNE 33 41 18 22 1013.3 - 0.0
01/12:30pm 25.8 21.4 16.6 56 5.7 NNE 35 41 19 22 1013.8 - 0.0
01/12:00pm 25.6 21.8 16.7 58 5.5 NNE 32 37 17 20 1014.2 1014.2 0.0
01/11:30am 25.1 21.6 15.5 55 5.8 NNE 28 33 15 18 1015.0 - 0.0
01/11:00am 25.3 21.9 14.8 52 6.3 NNE 26 32 14 17 1015.6 - 0.0
01/10:30am 24.1 20.5 14.1 53 5.9 N 26 32 14 17 1016.1 - 0.0
01/10:00am 23.9 21.7 14.8 56 5.4 N 20 26 11 14 1016.8 - 0.0
01/09:30am 23.7 21.2 14.0 54 5.7 N 20 26 11 14 1017.3 - 0.0
01/09:00am 23.3 21.3 12.6 51 6.1 N 15 19 8 10 1017.7 1017.7 0.0
01/08:30am 22.2 20.8 13.5 57 5.0 NNW 13 17 7 9 1017.8 - 0.0
01/08:00am 20.9 19.3 14.0 64 4.0 NNW 15 19 8 10 1017.7 - 0.0
01/07:30am 20.2 18.3 14.1 68 3.5 N 17 28 9 15 1017.4 - 0.0
01/07:00am 19.6 17.3 14.2 71 3.1 NNW 19 24 10 13 1017.4 - 0.0
01/06:30am 18.9 16.8 14.6 76 2.5 N 19 26 10 14 1017.1 - 0.0
01/06:00am 18.1 15.7 14.5 79 2.1 N 20 26 11 14 1016.7 1016.7 0.0
01/05:30am 16.4 13.8 13.9 85 1.4 N 20 28 11 15 1016.5 - 0.0
01/05:00am 15.8 15.2 13.5 86 1.3 WNW 9 11 5 6 1016.5 - 0.0
01/04:30am 15.8 13.8 13.8 88 1.1 NNW 17 20 9 11 1016.1 - 0.0
01/04:00am 16.6 15.1 14.3 86 1.3 NNW 15 19 8 10 1016.1 - 0.0
01/03:30am 17.4 15.2 14.4 82 1.7 N 19 22 10 12 1016.0 - 0.0
01/03:00am 17.0 14.7 14.2 83 1.6 NNW 19 26 10 14 1016.2 1016.2 0.0
01/02:30am 17.4 15.1 14.6 83 1.6 N 20 26 11 14 1016.4 - 0.0
01/02:00am 17.5 14.5 14.9 85 1.5 N 24 30 13 16 1016.5 - 0.0
01/01:30am 17.2 15.1 15.1 87 1.2 N 20 26 11 14 1016.9 - 0.0
01/01:00am 17.8 16.3 15.2 85 1.5 NNW 17 22 9 12 1017.3 - 0.0
01/12:30am 19.1 17.2 15.2 78 2.3 NNW 19 26 10 14 1017.4 - 0.0
01/12:00am 19.5 17.0 15.1 76 2.6 N 22 30 12 16 1017.5 1017.5 0.0
 
Date/Time
EST
Temp
°C
App
Temp
°C
Dew
Point
Rel
Hum
%
Delta-T
°C
Wind Press
QNH
hPa
Press
MSL
hPa
Rain
since 9 am
mm
Dir
 
Spd
km/h
Gust
km/h
Spd
kts
Gust
kts
30/11:30pm 19.9 16.8 15.7 77 2.5 N 26 33 14 18 1017.7 - 0.0
30/11:00pm 20.0 15.8 15.8 77 2.5 N 32 39 17 21 1017.8 - 0.0
30/10:30pm 20.2 17.0 16.2 78 2.4 N 28 37 15 20 1017.8 - 0.0
30/10:00pm 20.5 17.4 16.5 78 2.4 N 28 35 15 19 1018.3 - 0.0
30/09:30pm 20.3 17.5 16.3 78 2.4 N 26 32 14 17 1018.3 - 0.0
30/09:00pm 20.5 17.7 16.3 77 2.5 N 26 32 14 17 1018.4 1018.4 0.0
30/08:30pm 20.6 17.8 16.3 76 2.6 N 26 35 14 19 1018.4 - 0.0
30/08:00pm 20.8 18.3 16.1 74 2.8 N 24 33 13 18 1018.1 - 0.0
30/07:30pm 20.6 17.2 15.9 74 2.8 N 28 35 15 19 1017.9 - 0.0
30/07:00pm 20.7 17.4 16.0 74 2.8 N 28 39 15 21 1017.8 - 0.0
30/06:30pm 20.9 17.1 15.7 72 3.1 N 30 37 16 20 1017.5 - 0.0
30/06:00pm 20.9 16.6 15.5 71 3.2 N 32 37 17 20 1017.3 1017.3 0.0
30/05:30pm 21.2 17.8 15.7 71 3.3 N 28 37 15 20 1017.2 - 0.0
30/05:00pm 21.8 17.6 15.6 68 3.7 N 32 33 17 18 1017.1 - 0.0
30/04:30pm 22.4 18.4 15.2 63 4.3 N 30 35 16 19 1017.1 - 0.0
30/04:00pm 22.6 18.4 15.6 64 4.2 N 32 37 17 20 1016.8 - 0.0
30/03:30pm 23.4 19.6 15.8 62 4.6 NNE 30 39 16 21 1016.9 - 0.0
30/03:00pm 23.3 18.8 15.3 60 4.8 NNE 33 43 18 23 1016.9 1016.9 0.0
30/02:30pm 23.0 18.5 15.5 62 4.5 NNE 33 41 18 22 1017.0 - 0.0
30/02:00pm 23.2 18.1 14.8 59 5.0 NNE 35 44 19 24 1017.2 - 0.0
30/01:30pm 23.6 18.7 14.4 56 5.4 NNE 33 41 18 22 1017.6 - 0.0
30/01:00pm 24.0 19.2 14.5 55 5.6 NNE 33 39 18 21 1018.1 - 0.0
30/12:30pm 23.9 19.2 14.8 56 5.4 NNE 33 37 18 20 1018.5 - 0.0
30/12:00pm 23.6 19.5 13.8 54 5.7 NNE 28 33 15 18 1019.0 1019.0 0.0
30/11:30am 24.2 20.8 13.8 52 6.1 NNE 24 30 13 16 1019.5 - 0.0
30/11:00am 23.9 20.9 12.5 49 6.5 NNE 20 26 11 14 1019.8 - 0.0
30/10:30am 23.0 19.9 11.6 48 6.4 NNE 19 24 10 13 1020.2 - 0.0
30/10:00am 22.3 20.0 11.7 51 5.9 N 15 19 8 10 1020.7 - 0.0
30/09:30am 21.6 19.2 11.3 52 5.7 N 15 20 8 11 1021.0 - 0.0
30/09:00am 21.0 19.0 11.6 55 5.2 N 13 15 7 8 1021.1 1021.1 0.0
30/08:30am 20.7 19.2 11.9 57 4.9 N 11 15 6 8 1021.2 - 0.0
30/08:00am 19.4 19.3 12.2 63 4.0 NNW 4 13 2 7 1021.1 - 0.0
30/07:30am 18.7 18.4 12.8 68 3.3 NW 6 9 3 5 1020.9 - 0.0
30/07:00am 16.9 17.3 13.7 81 1.8 SSW 4 7 2 4 1020.9 - 0.0
30/06:30am 15.2 14.9 12.6 84 1.4 SSW 6 7 3 4 1020.6 - 0.0
30/06:00am 13.3 12.8 12.2 93 0.6 WSW 6 7 3 4 1020.2 1020.2 0.0
30/05:30am 12.8 11.5 11.3 91 0.8 W 9 13 5 7 1019.9 - 0.0
30/05:00am 12.7 12.1 11.8 94 0.5 WNW 6 11 3 6 1019.6 - 0.0
30/04:30am 13.3 12.8 12.0 92 0.7 W 6 7 3 4 1019.5 - 0.0
30/04:00am 13.8 14.5 12.1 89 0.9 CALM 0 0 0 0 1019.1 - 0.0
30/03:30am 13.9 14.1 11.8 87 1.1 W 2 7 1 4 1018.9 - 0.0
30/03:00am 14.3 13.9 12.5 89 1.0 NW 6 7 3 4 1018.9 1018.9 0.0
30/02:30am 14.3 12.9 12.1 87 1.2 WNW 11 13 6 7 1019.0 - 0.0
30/02:00am 15.4 15.2 13.0 85 1.3 W 6 7 3 4 1019.1 - 0.0
30/01:30am 15.3 14.9 13.1 87 1.2 W 7 9 4 5 1019.2 - 0.0
30/01:00am 15.9 15.2 13.2 84 1.5 N 9 13 5 7 1019.3 - 0.0
30/12:30am 16.6 15.2 13.4 81 1.8 N 13 17 7 9 1019.4 - 0.0
30/12:00am 17.2 15.1 13.7 80 2.0 N 17 20 9 11 1019.5 1019.5 0.0
 
Date/Time
EST
Temp
°C
App
Temp
°C
Dew
Point
Rel
Hum
%
Delta-T
°C
Wind Press
QNH
hPa
Press
MSL
hPa
Rain
since 9 am
mm
Dir
 
Spd
km/h
Gust
km/h
Spd
kts
Gust
kts
29/11:30pm 17.4 15.3 13.5 78 2.2 N 17 22 9 12 1019.7 - 0.0
29/11:00pm 17.2 15.0 13.3 78 2.2 NNW 17 20 9 11 1019.8 - 0.0
29/10:30pm 17.5 15.7 13.4 77 2.3 NNW 15 19 8 10 1019.8 - 0.0
29/10:00pm 17.4 15.6 13.3 77 2.3 NNW 15 20 8 11 1019.9 - 0.0
29/09:30pm 18.4 16.4 13.8 74 2.6 NNW 17 20 9 11 1019.7 - 0.0
29/09:00pm 19.6 16.6 13.8 69 3.3 NNW 22 28 12 15 1019.7 1019.7 0.0
29/08:30pm 19.5 16.4 13.5 68 3.4 N 22 28 12 15 1019.6 - 0.0
29/08:00pm 19.5 16.4 13.3 67 3.5 N 22 28 12 15 1019.7 - 0.0
29/07:30pm 19.3 17.0 13.1 67 3.5 N 17 24 9 13 1019.4 - 0.0
29/07:00pm 19.5 16.6 12.9 65 3.7 N 20 28 11 15 1019.2 - 0.0
29/06:30pm 19.4 16.0 12.6 64 3.8 N 22 28 12 15 1018.9 - 0.0
29/06:00pm 19.7 16.3 12.6 63 4.0 N 22 30 12 16 1018.5 1018.5 0.0
29/05:30pm 20.2 16.4 12.5 61 4.3 N 24 32 13 17 1018.1 - 0.0
29/05:00pm 20.7 16.5 12.5 59 4.6 N 26 35 14 19 1017.9 - 0.0
29/04:30pm 21.4 17.0 13.0 58 4.8 N 28 33 15 18 1017.7 - 0.0
29/04:00pm 21.7 17.7 13.1 58 4.9 N 26 32 14 17 1017.6 - 0.0
29/03:30pm 22.0 17.9 13.7 59 4.8 NNE 28 33 15 18 1017.5 - 0.0
29/03:00pm 22.5 18.2 13.1 55 5.4 NNE 28 33 15 18 1017.5 1017.5 0.0

Other Formats:

Comma delimited format used in spreadsheet applications
http://www.bom.gov.au/fwo/IDQ60801/IDQ60801.94578.axf

JavaScript Object Notation format (JSON) in row-major order
http://www.bom.gov.au/fwo/IDQ60801/IDQ60801.94578.json